createdAt,value
2018-06-16T00:02:06.352Z,54.30
2018-06-16T00:04:34.181Z,54.23
2018-06-16T00:07:01.982Z,53.92
2018-06-16T00:09:29.603Z,54.36
2018-06-16T00:11:57.419Z,53.94
2018-06-16T00:14:25.488Z,54.09
2018-06-16T00:16:53.171Z,54.37
2018-06-16T00:19:21.283Z,54.60
2018-06-16T00:21:49.193Z,54.12
2018-06-16T00:24:17.161Z,54.17
2018-06-16T00:26:45.009Z,54.37
2018-06-16T00:29:12.671Z,54.62
2018-06-16T00:31:40.291Z,54.63
2018-06-16T00:34:08.054Z,54.61
2018-06-16T00:36:35.875Z,54.40
2018-06-16T00:39:05.370Z,54.99
2018-06-16T00:41:33.102Z,55.03
2018-06-16T00:44:02.226Z,54.94
2018-06-16T00:46:29.834Z,54.95
2018-06-16T00:48:57.547Z,55.15
2018-06-16T00:51:25.733Z,55.09
2018-06-16T00:53:53.513Z,54.86
2018-06-16T00:56:21.418Z,55.05
2018-06-16T00:58:50.203Z,54.75
2018-06-16T01:01:17.891Z,54.95
2018-06-16T01:03:45.682Z,55.16
2018-06-16T01:06:13.604Z,55.46
2018-06-16T01:08:41.207Z,54.91
2018-06-16T01:11:08.979Z,55.29
2018-06-16T01:13:36.912Z,54.91
2018-06-16T01:16:04.572Z,55.36
2018-06-16T01:18:32.444Z,55.30
2018-06-16T01:21:00.350Z,55.19
2018-06-16T01:23:27.984Z,55.05
2018-06-16T01:25:56.104Z,55.31
2018-06-16T01:28:23.913Z,55.30
2018-06-16T01:30:51.519Z,55.32
2018-06-16T01:33:19.369Z,55.57
2018-06-16T01:35:47.848Z,55.38
2018-06-16T01:38:15.497Z,55.30
2018-06-16T01:40:43.350Z,55.51
2018-06-16T01:43:11.274Z,55.76
2018-06-16T01:45:38.920Z,55.43
2018-06-16T01:48:06.777Z,55.45
2018-06-16T01:50:34.560Z,55.77
2018-06-16T01:53:02.195Z,55.47
2018-06-16T01:55:30.098Z,55.49
2018-06-16T01:57:57.858Z,55.69
2018-06-16T02:00:25.506Z,56.03
2018-06-16T02:02:53.360Z,56.12
2018-06-16T02:05:21.211Z,55.62
2018-06-16T02:07:48.855Z,55.66
2018-06-16T02:10:16.845Z,55.99
2018-06-16T02:12:44.890Z,55.87
2018-06-16T02:15:12.573Z,55.95
2018-06-16T02:17:40.387Z,55.83
2018-06-16T02:20:08.275Z,56.02
2018-06-16T02:22:35.873Z,56.36
2018-06-16T02:25:03.894Z,55.88
2018-06-16T02:27:32.038Z,56.45
2018-06-16T02:29:59.645Z,55.97
2018-06-16T02:32:27.503Z,56.29
2018-06-16T02:34:55.249Z,55.99
2018-06-16T02:37:22.918Z,55.99
2018-06-16T02:39:50.805Z,56.12
2018-06-16T02:42:18.774Z,56.30
2018-06-16T02:44:46.464Z,56.20
2018-06-16T02:47:14.189Z,56.21
2018-06-16T02:49:41.883Z,56.16
2018-06-16T02:52:09.480Z,56.26
2018-06-16T02:54:37.361Z,56.12
2018-06-16T02:57:05.294Z,56.13
2018-06-16T02:59:33.088Z,55.87
2018-06-16T03:02:00.867Z,56.21
2018-06-16T03:04:28.629Z,56.15
2018-06-16T03:06:56.339Z,56.40
2018-06-16T03:09:24.150Z,56.45
2018-06-16T03:11:52.007Z,55.99
2018-06-16T03:14:19.680Z,56.12
2018-06-16T03:16:47.628Z,56.11
2018-06-16T03:19:15.519Z,56.29
2018-06-16T03:21:43.193Z,55.68
2018-06-16T03:24:11.383Z,55.86
2018-06-16T03:26:39.409Z,55.71
2018-06-16T03:29:07.243Z,56.38
2018-06-16T03:31:35.000Z,55.99
2018-06-16T03:34:02.900Z,56.14
2018-06-16T03:36:30.526Z,56.10
2018-06-16T03:38:58.383Z,55.92
2018-06-16T03:41:26.237Z,55.82
2018-06-16T03:43:53.878Z,56.34
2018-06-16T03:46:21.651Z,55.80
2018-06-16T03:48:49.369Z,56.23
2018-06-16T03:51:16.995Z,55.72
2018-06-16T03:53:44.921Z,56.20
2018-06-16T03:56:12.792Z,55.99
2018-06-16T03:58:40.485Z,55.60
2018-06-16T04:01:08.218Z,55.92
2018-06-16T04:03:36.129Z,55.80
2018-06-16T04:06:03.847Z,55.53
2018-06-16T04:08:31.653Z,55.52
2018-06-16T04:10:59.399Z,55.92
2018-06-16T04:13:27.012Z,55.71
2018-06-16T04:15:55.551Z,55.81
2018-06-16T04:18:23.284Z,56.12
2018-06-16T04:20:50.926Z,56.16
2018-06-16T04:23:18.866Z,56.04
2018-06-16T04:25:46.819Z,55.62
2018-06-16T04:28:14.458Z,55.42
2018-06-16T04:30:42.512Z,55.90
2018-06-16T04:33:10.360Z,55.84
2018-06-16T04:35:37.967Z,55.22
2018-06-16T04:38:05.848Z,55.57
2018-06-16T04:40:33.634Z,55.24
2018-06-16T04:43:01.262Z,55.47
2018-06-16T04:45:29.083Z,55.17
2018-06-16T04:47:56.927Z,55.58
2018-06-16T04:50:24.513Z,55.53
2018-06-16T04:52:52.435Z,55.37
2018-06-16T04:55:20.217Z,55.42
2018-06-16T04:57:47.839Z,55.16
2018-06-16T05:00:15.747Z,55.08
2018-06-16T05:02:43.633Z,55.02
2018-06-16T05:05:11.317Z,55.20
2018-06-16T05:07:39.147Z,55.35
2018-06-16T05:10:06.927Z,54.67
2018-06-16T05:12:34.601Z,55.20
2018-06-16T05:15:02.398Z,54.97
2018-06-16T05:17:30.294Z,54.59
2018-06-16T05:19:57.888Z,54.49
2018-06-16T05:22:25.636Z,54.75
2018-06-16T05:24:53.388Z,54.30
2018-06-16T05:27:21.090Z,54.07
2018-06-16T05:29:48.892Z,53.99
2018-06-16T05:32:16.912Z,54.44
2018-06-16T05:34:44.557Z,53.97
2018-06-16T05:37:12.272Z,53.91
2018-06-16T05:39:39.998Z,53.33
2018-06-16T05:42:07.601Z,53.64
2018-06-16T05:44:35.360Z,53.49
2018-06-16T05:47:03.233Z,52.70
2018-06-16T05:49:30.850Z,52.85
2018-06-16T05:51:58.690Z,52.12
2018-06-16T05:54:26.363Z,51.68
2018-06-16T05:56:53.992Z,51.60
2018-06-16T05:59:21.800Z,51.49
2018-06-16T06:01:49.722Z,51.18
2018-06-16T06:04:17.344Z,50.97
2018-06-16T06:06:45.199Z,50.83
2018-06-16T06:09:13.047Z,50.82
2018-06-16T06:11:40.661Z,50.65
2018-06-16T06:14:09.210Z,50.60
2018-06-16T06:16:37.073Z,50.00
2018-06-16T06:19:04.784Z,50.21
2018-06-16T06:21:32.760Z,49.44
2018-06-16T06:24:00.533Z,49.77
2018-06-16T06:26:28.135Z,49.48
2018-06-16T06:28:55.891Z,49.60
2018-06-16T06:31:23.655Z,48.79
2018-06-16T06:33:51.609Z,48.79
2018-06-16T06:36:19.442Z,48.70
2018-06-16T06:38:47.304Z,48.55
2018-06-16T06:41:14.965Z,47.98
2018-06-16T06:43:42.881Z,47.51
2018-06-16T06:46:10.661Z,48.04
2018-06-16T06:48:38.266Z,47.65
2018-06-16T06:51:06.105Z,47.36
2018-06-16T06:53:33.963Z,46.36
2018-06-16T06:56:01.552Z,46.17
2018-06-16T06:58:29.273Z,46.18
2018-06-16T07:00:57.063Z,45.57
2018-06-16T07:03:24.667Z,45.25
2018-06-16T07:05:52.738Z,45.28
2018-06-16T07:08:20.525Z,45.31
2018-06-16T07:10:48.169Z,45.56
2018-06-16T07:13:15.868Z,45.62
2018-06-16T07:15:43.716Z,45.86
2018-06-16T07:18:11.342Z,46.21
2018-06-16T07:20:39.102Z,46.58
2018-06-16T07:23:06.749Z,45.99
2018-06-16T07:25:34.403Z,46.33
2018-06-16T07:28:02.149Z,46.17
2018-06-16T07:30:29.961Z,46.52
2018-06-16T07:32:57.611Z,46.46
2018-06-16T07:35:25.552Z,46.64
2018-06-16T07:37:53.402Z,46.22
2018-06-16T07:40:21.000Z,46.28
2018-06-16T07:42:48.818Z,46.78
2018-06-16T07:45:16.646Z,46.60
2018-06-16T07:47:45.749Z,46.59
2018-06-16T07:50:13.539Z,46.09
2018-06-16T07:52:41.229Z,46.24
2018-06-16T07:55:08.846Z,46.16
2018-06-16T07:57:36.495Z,45.91
2018-06-16T08:00:04.375Z,46.25
2018-06-16T08:02:31.963Z,46.34
2018-06-16T08:04:59.789Z,45.88
2018-06-16T08:07:27.603Z,45.38
2018-06-16T08:09:55.253Z,45.82
2018-06-16T08:12:23.169Z,45.48
2018-06-16T08:14:51.146Z,45.55
2018-06-16T08:17:18.870Z,45.25
2018-06-16T08:19:46.712Z,44.77
2018-06-16T08:22:14.444Z,44.70
2018-06-16T08:24:42.076Z,44.57
2018-06-16T08:27:09.877Z,44.26
2018-06-16T08:29:37.673Z,43.80
2018-06-16T08:32:05.560Z,43.44
2018-06-16T08:34:33.624Z,43.82
2018-06-16T08:37:01.622Z,43.49
2018-06-16T08:39:29.292Z,43.32
2018-06-16T08:41:57.116Z,43.23
2018-06-16T08:44:25.213Z,43.20
2018-06-16T08:46:52.841Z,43.50
2018-06-16T08:49:20.585Z,43.83
2018-06-16T08:51:48.517Z,44.49
2018-06-16T08:54:16.168Z,44.76
2018-06-16T08:56:43.862Z,44.49
2018-06-16T08:59:12.592Z,44.66
2018-06-16T09:01:40.249Z,44.17
2018-06-16T09:04:07.929Z,44.15
2018-06-16T09:06:35.653Z,44.83
2018-06-16T09:09:03.703Z,44.56
2018-06-16T09:11:46.856Z,44.69
2018-06-16T09:14:14.460Z,44.03
2018-06-16T09:16:42.057Z,43.55
2018-06-16T09:19:10.212Z,43.66
2018-06-16T09:21:37.796Z,43.38
2018-06-16T09:24:05.421Z,42.58
2018-06-16T09:26:33.530Z,42.13
2018-06-16T09:29:01.129Z,41.62
2018-06-16T09:31:28.796Z,41.93
2018-06-16T09:33:56.850Z,42.59
2018-06-16T09:36:24.472Z,42.49
2018-06-16T09:38:52.197Z,42.38
2018-06-16T09:41:20.395Z,42.40
2018-06-16T09:43:48.035Z,42.16
2018-06-16T09:46:15.615Z,42.48
2018-06-16T09:48:43.733Z,41.61
2018-06-16T09:51:11.342Z,41.18
2018-06-16T09:53:38.959Z,40.77
2018-06-16T09:56:07.031Z,39.93
2018-06-16T09:58:34.708Z,40.03
2018-06-16T10:01:02.393Z,39.80
2018-06-16T10:03:30.319Z,39.33
2018-06-16T10:05:57.959Z,39.77
2018-06-16T10:08:25.698Z,39.07
2018-06-16T10:10:53.705Z,38.16
2018-06-16T10:13:21.326Z,38.23
2018-06-16T10:15:48.935Z,38.38
2018-06-16T10:18:16.589Z,38.61
2018-06-16T10:20:43.575Z,38.51
2018-06-16T10:23:11.148Z,38.72
2018-06-16T10:25:39.151Z,39.10
2018-06-16T10:28:06.191Z,38.52
2018-06-16T10:30:34.172Z,38.46
2018-06-16T10:33:02.136Z,38.73
2018-06-16T10:35:29.821Z,38.55
2018-06-16T10:37:57.459Z,39.29
2018-06-16T10:40:24.912Z,38.75
2018-06-16T10:42:51.951Z,39.43
2018-06-16T10:45:18.946Z,39.36
2018-06-16T10:47:46.280Z,39.55
2018-06-16T10:50:13.890Z,39.51
2018-06-16T10:52:41.645Z,38.95
2018-06-16T10:55:09.753Z,39.06
2018-06-16T10:57:38.208Z,38.96
2018-06-16T11:00:05.265Z,39.46
2018-06-16T11:02:32.484Z,39.48
2018-06-16T11:05:00.056Z,39.26
2018-06-16T11:07:27.038Z,39.06
2018-06-16T11:09:54.768Z,39.08
2018-06-16T11:12:22.402Z,38.83
2018-06-16T11:14:50.015Z,38.42
2018-06-16T11:17:18.031Z,38.71
2018-06-16T11:19:45.622Z,38.46
2018-06-16T11:22:12.679Z,38.68
2018-06-16T11:24:39.922Z,38.68
2018-06-16T11:27:06.994Z,38.99
2018-06-16T11:29:34.560Z,38.19
2018-06-16T11:32:02.507Z,37.84
2018-06-16T11:34:29.626Z,37.89
2018-06-16T11:36:56.726Z,37.86
2018-06-16T11:39:24.064Z,38.03
2018-06-16T11:41:51.112Z,37.87
2018-06-16T11:44:18.171Z,37.95
2018-06-16T11:46:46.173Z,38.52
2018-06-16T11:49:13.765Z,38.59
2018-06-16T11:51:40.784Z,38.68
2018-06-16T11:54:07.940Z,38.65
2018-06-16T11:56:34.969Z,38.05
2018-06-16T11:59:02.635Z,38.66
2018-06-16T12:01:29.923Z,38.97
2018-06-16T12:03:57.593Z,39.11
2018-06-16T12:06:25.269Z,38.74
2018-06-16T12:08:53.427Z,39.27
2018-06-16T12:11:21.191Z,39.45
2018-06-16T12:13:48.858Z,39.05
2018-06-16T12:16:16.622Z,39.51
2018-06-16T12:18:44.307Z,39.01
2018-06-16T12:21:12.032Z,39.18
2018-06-16T12:23:39.479Z,38.67
2018-06-16T12:26:07.065Z,38.87
2018-06-16T12:28:34.149Z,38.99
2018-06-16T12:31:02.013Z,38.24
2018-06-16T12:33:29.972Z,38.35
2018-06-16T12:35:57.593Z,39.02
2018-06-16T12:38:25.653Z,39.10
2018-06-16T12:40:53.244Z,39.09
2018-06-16T12:43:20.839Z,39.08
2018-06-16T12:45:49.024Z,39.24
2018-06-16T12:48:16.621Z,39.60
2018-06-16T12:50:44.215Z,39.80
2018-06-16T12:53:12.318Z,39.32
2018-06-16T12:55:39.924Z,39.45
2018-06-16T12:58:07.609Z,38.75
2018-06-16T13:00:35.419Z,39.47
2018-06-16T13:03:03.050Z,39.36
2018-06-16T13:05:30.696Z,38.97
2018-06-16T13:07:58.953Z,38.95
2018-06-16T13:10:26.556Z,39.45
2018-06-16T13:12:54.147Z,39.28
2018-06-16T13:15:22.312Z,39.02
2018-06-16T13:17:49.998Z,38.50
2018-06-16T13:20:17.637Z,39.07
2018-06-16T13:22:45.832Z,38.97
2018-06-16T13:25:13.406Z,38.91
2018-06-16T13:27:41.002Z,39.35
2018-06-16T13:30:08.915Z,39.74
2018-06-16T13:32:36.519Z,39.28
2018-06-16T13:35:04.497Z,40.04
2018-06-16T13:37:32.277Z,40.51
2018-06-16T13:39:59.911Z,40.43
2018-06-16T13:42:27.521Z,40.72
2018-06-16T13:44:55.334Z,40.95
2018-06-16T13:47:22.947Z,41.67
2018-06-16T13:49:50.592Z,42.29
2018-06-16T13:52:18.709Z,42.46
2018-06-16T13:54:46.348Z,42.83
2018-06-16T13:57:14.026Z,42.99
2018-06-16T13:59:42.149Z,43.07
2018-06-16T14:02:09.808Z,43.54
2018-06-16T14:04:37.473Z,43.33
2018-06-16T14:07:05.496Z,43.71
2018-06-16T14:09:33.184Z,43.95
2018-06-16T14:12:00.782Z,44.60
2018-06-16T14:14:28.728Z,44.27
2018-06-16T14:16:56.385Z,44.59
2018-06-16T14:19:23.991Z,44.44
2018-06-16T14:21:52.022Z,45.39
2018-06-16T14:24:19.680Z,45.58
2018-06-16T14:26:47.263Z,45.52
2018-06-16T14:29:15.441Z,45.54
2018-06-16T14:31:43.020Z,45.85
2018-06-16T14:34:10.622Z,45.86
2018-06-16T14:36:38.592Z,45.46
2018-06-16T14:39:06.890Z,46.09
2018-06-16T14:41:34.565Z,45.76
2018-06-16T14:44:02.530Z,45.90
2018-06-16T14:46:30.122Z,46.10
2018-06-16T14:48:57.707Z,46.34
2018-06-16T14:51:25.793Z,46.13
2018-06-16T14:53:53.384Z,46.33
2018-06-16T14:56:21.066Z,46.03
2018-06-16T14:58:48.829Z,45.79
2018-06-16T15:01:16.421Z,46.08
2018-06-16T15:03:44.072Z,45.90
2018-06-16T15:06:11.814Z,45.99
2018-06-16T15:08:39.400Z,46.36
2018-06-16T15:11:07.028Z,46.22
2018-06-16T15:13:35.077Z,46.03
2018-06-16T15:16:02.944Z,46.13
2018-06-16T15:18:30.520Z,45.81
2018-06-16T15:20:58.264Z,46.10
2018-06-16T15:23:26.022Z,45.75
2018-06-16T15:25:53.626Z,45.94
2018-06-16T15:28:21.475Z,45.58
2018-06-16T15:30:49.264Z,45.55
2018-06-16T15:33:16.880Z,45.25
2018-06-16T15:35:44.560Z,45.16
2018-06-16T15:38:12.520Z,45.49
2018-06-16T15:40:40.139Z,45.30
2018-06-16T15:43:07.863Z,45.10
2018-06-16T15:45:35.613Z,45.21
2018-06-16T15:48:03.276Z,45.54
2018-06-16T15:50:31.098Z,45.56
2018-06-16T15:52:58.793Z,45.21
2018-06-16T15:55:26.498Z,45.38
2018-06-16T15:57:54.264Z,45.53
2018-06-16T16:00:22.050Z,45.41
2018-06-16T16:02:49.628Z,45.24
2018-06-16T16:05:17.418Z,45.18
2018-06-16T16:07:45.189Z,45.01
2018-06-16T16:10:12.820Z,44.98
2018-06-16T16:12:40.665Z,44.70
2018-06-16T16:15:08.455Z,44.74
2018-06-16T16:17:36.107Z,45.02
2018-06-16T16:20:04.013Z,44.55
2018-06-16T16:22:32.447Z,44.68
2018-06-16T16:25:00.393Z,45.32
2018-06-16T16:27:28.076Z,45.51
2018-06-16T16:29:55.926Z,45.67
2018-06-16T16:32:23.525Z,46.01
2018-06-16T16:34:51.256Z,46.35
2018-06-16T16:37:19.074Z,46.15
2018-06-16T16:39:46.928Z,46.40
2018-06-16T16:42:14.695Z,46.58
2018-06-16T16:44:42.538Z,47.23
2018-06-16T16:47:10.163Z,47.57
2018-06-16T16:49:37.905Z,47.27
2018-06-16T16:52:05.882Z,47.39
2018-06-16T16:54:33.553Z,47.93
2018-06-16T16:57:01.436Z,48.14
2018-06-16T16:59:29.191Z,48.44
2018-06-16T17:01:56.793Z,48.14
2018-06-16T17:04:24.584Z,48.49
2018-06-16T17:06:52.354Z,48.16
2018-06-16T17:09:20.003Z,48.66
2018-06-16T17:11:47.750Z,48.70
2018-06-16T17:14:15.609Z,48.35
2018-06-16T17:16:43.276Z,49.02
2018-06-16T17:19:11.079Z,49.16
2018-06-16T17:21:38.752Z,48.82
2018-06-16T17:24:06.389Z,49.29
2018-06-16T17:26:34.204Z,49.03
2018-06-16T17:29:02.004Z,49.41
2018-06-16T17:31:29.563Z,49.75
2018-06-16T17:33:57.313Z,49.73
2018-06-16T17:36:25.128Z,49.42
2018-06-16T17:38:52.776Z,49.43
2018-06-16T17:41:21.001Z,49.47
2018-06-16T17:43:48.781Z,49.83
2018-06-16T17:46:16.584Z,49.83
2018-06-16T17:48:44.207Z,50.22
2018-06-16T17:51:11.945Z,50.10
2018-06-16T17:53:39.790Z,50.42
2018-06-16T17:56:07.482Z,50.49
2018-06-16T17:58:35.182Z,50.11
2018-06-16T18:01:03.034Z,50.20
2018-06-16T18:03:30.600Z,50.85
2018-06-16T18:05:58.475Z,50.68
2018-06-16T18:08:26.216Z,50.96
2018-06-16T18:10:53.837Z,50.76
2018-06-16T18:13:21.543Z,50.59
2018-06-16T18:15:49.424Z,50.82
2018-06-16T18:18:17.038Z,51.43
2018-06-16T18:20:44.941Z,51.56
2018-06-16T18:23:12.861Z,51.57
2018-06-16T18:25:40.484Z,51.83
2018-06-16T18:28:08.260Z,51.93
2018-06-16T18:30:35.983Z,52.04
2018-06-16T18:33:03.545Z,51.76
2018-06-16T18:35:31.383Z,52.20
2018-06-16T18:37:59.270Z,52.16
2018-06-16T18:40:26.944Z,52.12
2018-06-16T18:42:55.036Z,52.78
2018-06-16T18:45:22.744Z,52.37
2018-06-16T18:47:50.335Z,52.81
2018-06-16T18:50:18.091Z,52.63
2018-06-16T18:52:45.786Z,52.54
2018-06-16T18:55:13.469Z,53.08
2018-06-16T18:57:41.303Z,53.19
2018-06-16T19:00:09.111Z,52.59
2018-06-16T19:02:36.708Z,52.67
2018-06-16T19:05:04.664Z,52.83
2018-06-16T19:07:32.456Z,53.28
2018-06-16T19:10:00.097Z,53.37
2018-06-16T19:12:27.974Z,53.14
2018-06-16T19:14:55.855Z,53.14
2018-06-16T19:17:23.484Z,53.33
2018-06-16T19:19:51.209Z,53.17
2018-06-16T19:22:18.882Z,52.71
2018-06-16T19:24:46.540Z,53.57
2018-06-16T19:27:14.360Z,53.36
2018-06-16T19:29:42.110Z,53.23
2018-06-16T19:32:09.714Z,53.57
2018-06-16T19:34:37.483Z,53.65
2018-06-16T19:37:05.405Z,53.61
2018-06-16T19:39:33.058Z,53.63
2018-06-16T19:42:00.726Z,53.69
2018-06-16T19:44:28.552Z,53.38
2018-06-16T19:46:56.156Z,53.89
2018-06-16T19:49:24.042Z,53.94
2018-06-16T19:51:51.738Z,54.08
2018-06-16T19:54:19.458Z,53.89
2018-06-16T19:56:47.306Z,54.23
2018-06-16T19:59:15.022Z,53.91
2018-06-16T20:01:42.711Z,54.13
2018-06-16T20:04:10.640Z,54.66
2018-06-16T20:06:38.507Z,54.48
2018-06-16T20:09:06.812Z,54.43
2018-06-16T20:11:34.449Z,54.50
2018-06-16T20:14:02.287Z,55.09
2018-06-16T20:16:29.902Z,54.68
2018-06-16T20:18:57.934Z,54.95
2018-06-16T20:21:25.745Z,54.79
2018-06-16T20:23:53.370Z,55.01
2018-06-16T20:26:21.003Z,55.40
2018-06-16T20:28:48.609Z,55.02
2018-06-16T20:31:16.233Z,55.48
2018-06-16T20:33:44.108Z,55.02
2018-06-16T20:36:11.980Z,54.87
2018-06-16T20:38:39.580Z,55.22
2018-06-16T20:41:07.384Z,55.61
2018-06-16T20:43:35.262Z,55.83
2018-06-16T20:46:03.077Z,55.82
2018-06-16T20:48:31.654Z,55.74
2018-06-16T20:50:59.482Z,55.44
2018-06-16T20:53:27.092Z,55.77
2018-06-16T20:55:54.838Z,55.64
2018-06-16T20:58:22.557Z,56.13
2018-06-16T21:00:50.228Z,55.74
2018-06-16T21:03:18.139Z,56.30
2018-06-16T21:05:46.079Z,56.38
2018-06-16T21:08:13.732Z,56.37
2018-06-16T21:10:41.625Z,56.31
2018-06-16T21:13:09.374Z,56.56
2018-06-16T21:15:37.027Z,56.63
2018-06-16T21:18:04.966Z,56.71
2018-06-16T21:20:32.797Z,56.11
2018-06-16T21:23:00.442Z,56.38
2018-06-16T21:25:28.280Z,56.33
2018-06-16T21:27:56.071Z,56.37
2018-06-16T21:30:23.712Z,56.55
2018-06-16T21:32:51.501Z,56.94
2018-06-16T21:35:19.236Z,56.48
2018-06-16T21:37:46.882Z,56.55
2018-06-16T21:40:14.686Z,56.92
2018-06-16T21:42:42.391Z,56.74
2018-06-16T21:45:10.047Z,56.97
2018-06-16T21:47:37.867Z,56.56
2018-06-16T21:50:05.688Z,57.17
2018-06-16T21:52:33.413Z,57.04
2018-06-16T21:55:01.223Z,56.72
2018-06-16T21:57:28.894Z,56.79
2018-06-16T21:59:56.588Z,56.72
2018-06-16T22:02:24.414Z,57.22
2018-06-16T22:04:52.231Z,56.98
2018-06-16T22:09:26.545Z,57.18
2018-06-16T22:11:54.566Z,57.17
2018-06-16T22:14:22.298Z,56.71
2018-06-16T22:16:49.886Z,57.21
2018-06-16T22:19:17.662Z,57.06
2018-06-16T22:21:45.333Z,57.45
2018-06-16T22:24:13.012Z,56.94
2018-06-16T22:26:40.880Z,57.13
2018-06-16T22:29:08.508Z,57.56
2018-06-16T22:31:36.078Z,57.60
2018-06-16T22:34:04.075Z,57.63
2018-06-16T22:36:31.715Z,57.56
2018-06-16T22:38:59.284Z,57.40
2018-06-16T22:41:27.125Z,57.51
2018-06-16T22:43:54.723Z,57.52
2018-06-16T22:46:22.391Z,57.33
2018-06-16T22:48:50.323Z,57.24
2018-06-16T22:51:17.979Z,57.54
2018-06-16T22:53:45.573Z,57.50
2018-06-16T22:56:13.730Z,57.70
2018-06-16T22:58:41.359Z,58.00
2018-06-16T23:01:08.983Z,57.41
2018-06-16T23:03:37.012Z,57.59
2018-06-16T23:06:04.664Z,57.77
2018-06-16T23:08:32.243Z,58.14
2018-06-16T23:11:00.071Z,58.07
2018-06-16T23:13:27.723Z,58.09
2018-06-16T23:15:55.383Z,57.68
2018-06-16T23:18:23.139Z,58.35
2018-06-16T23:20:50.771Z,57.79
2018-06-16T23:23:18.431Z,58.35
2018-06-16T23:25:46.406Z,58.30
2018-06-16T23:28:13.958Z,57.94
2018-06-16T23:30:41.557Z,58.07
2018-06-16T23:33:09.539Z,58.57
2018-06-16T23:35:37.121Z,58.53
2018-06-16T23:38:04.869Z,58.65
2018-06-16T23:40:32.861Z,58.52
2018-06-16T23:43:00.507Z,58.67
2018-06-16T23:45:28.051Z,58.55
2018-06-16T23:47:55.938Z,58.38
2018-06-16T23:50:23.701Z,58.61
2018-06-16T23:52:51.343Z,58.66
2018-06-16T23:55:19.521Z,58.61
2018-06-16T23:57:47.166Z,58.36
